createdAt,value
2023-05-08T00:01:50.141Z,55.52
2023-05-08T00:04:21.025Z,55.59
2023-05-08T00:06:51.800Z,55.92
2023-05-08T00:09:21.410Z,55.96
2023-05-08T00:11:52.529Z,56.03
2023-05-08T00:14:21.421Z,56.06
2023-05-08T00:16:50.212Z,56.34
2023-05-08T00:19:20.785Z,56.43
2023-05-08T00:21:49.598Z,56.12
2023-05-08T00:24:18.327Z,56.46
2023-05-08T00:26:49.457Z,56.35
2023-05-08T00:29:19.242Z,56.46
2023-05-08T00:31:47.983Z,56.28
2023-05-08T00:34:16.898Z,56.57
2023-05-08T00:36:47.159Z,56.32
2023-05-08T00:39:16.597Z,56.53
2023-05-08T00:41:45.494Z,56.65
2023-05-08T00:44:15.425Z,56.57
2023-05-08T00:46:47.743Z,56.51
2023-05-08T00:49:19.196Z,56.36
2023-05-08T00:51:54.231Z,56.48
2023-05-08T00:54:23.673Z,56.19
2023-05-08T00:56:55.380Z,56.41
2023-05-08T00:59:27.200Z,56.27
2023-05-08T01:01:56.439Z,56.68
2023-05-08T01:04:28.919Z,56.56
2023-05-08T01:07:04.000Z,56.75
2023-05-08T01:09:33.317Z,57.21
2023-05-08T01:12:16.513Z,57.43
2023-05-08T01:15:01.964Z,58.37
2023-05-08T01:17:47.325Z,57.84
2023-05-08T01:20:41.219Z,57.88
2023-05-08T01:24:14.118Z,58.21
2023-05-08T01:27:43.321Z,58.06
2023-05-08T01:31:04.450Z,57.70
2023-05-08T01:33:47.613Z,57.75
2023-05-08T01:36:38.236Z,57.98
2023-05-08T01:39:18.737Z,57.98
2023-05-08T01:41:58.549Z,58.27
2023-05-08T01:44:36.202Z,58.92
2023-05-08T01:47:11.528Z,59.37
2023-05-08T01:49:46.274Z,59.15
2023-05-08T01:52:22.180Z,59.53
2023-05-08T01:55:00.862Z,59.55
2023-05-08T01:57:32.358Z,59.52
2023-05-08T02:00:05.270Z,59.75
2023-05-08T02:02:42.014Z,59.71
2023-05-08T02:05:15.591Z,59.47
2023-05-08T02:07:46.723Z,59.29
2023-05-08T02:10:17.664Z,59.21
2023-05-08T02:12:51.303Z,58.97
2023-05-08T02:15:24.365Z,58.89
2023-05-08T02:17:56.564Z,58.89
2023-05-08T02:20:29.067Z,58.52
2023-05-08T02:22:59.183Z,58.05
2023-05-08T02:25:30.617Z,57.69
2023-05-08T02:28:01.020Z,57.49
2023-05-08T02:30:31.448Z,57.23
2023-05-08T02:33:02.488Z,57.12
2023-05-08T02:35:33.630Z,56.98
2023-05-08T02:38:10.713Z,56.88
2023-05-08T02:40:45.569Z,56.59
2023-05-08T02:43:17.720Z,56.30
2023-05-08T02:45:53.645Z,55.46
2023-05-08T02:48:42.239Z,55.18
2023-05-08T02:51:23.501Z,54.98
2023-05-08T02:54:00.126Z,54.40
2023-05-08T02:56:39.150Z,53.87
2023-05-08T02:59:22.944Z,53.94
2023-05-08T03:02:01.239Z,53.80
2023-05-08T03:04:36.569Z,53.81
2023-05-08T03:07:08.150Z,52.86
2023-05-08T03:09:44.254Z,52.42
2023-05-08T03:12:23.626Z,51.79
2023-05-08T03:15:03.581Z,51.58
2023-05-08T03:17:38.218Z,51.80
2023-05-08T03:20:13.845Z,52.26
2023-05-08T03:22:48.343Z,52.47
2023-05-08T03:25:20.391Z,52.70
2023-05-08T03:27:53.197Z,53.14
2023-05-08T03:30:22.815Z,53.21
2023-05-08T03:33:03.192Z,53.81
2023-05-08T03:35:33.522Z,53.89
2023-05-08T03:38:04.110Z,53.79
2023-05-08T03:40:37.177Z,54.18
2023-05-08T03:43:08.614Z,53.89
2023-05-08T03:45:39.769Z,53.96
2023-05-08T03:48:11.684Z,53.91
2023-05-08T03:50:41.419Z,53.67
2023-05-08T03:53:13.247Z,53.75
2023-05-08T03:55:43.340Z,53.88
2023-05-08T03:58:23.352Z,53.88
2023-05-08T04:01:07.888Z,54.11
2023-05-08T04:03:57.247Z,54.14
2023-05-08T04:06:42.146Z,54.32
2023-05-08T04:09:28.057Z,54.30
2023-05-08T04:12:16.288Z,54.37
2023-05-08T04:14:50.972Z,54.44
2023-05-08T04:17:37.455Z,54.37
2023-05-08T04:20:13.366Z,54.64
2023-05-08T04:22:43.749Z,54.46
2023-05-08T04:25:16.522Z,54.15
2023-05-08T04:28:13.146Z,54.15
2023-05-08T04:30:42.857Z,54.09
2023-05-08T04:33:13.643Z,53.45
2023-05-08T04:35:42.483Z,53.32
2023-05-08T04:38:11.448Z,53.30
2023-05-08T04:40:41.704Z,52.88
2023-05-08T04:43:12.150Z,52.76
2023-05-08T04:45:40.875Z,52.93
2023-05-08T04:48:12.019Z,52.52
2023-05-08T04:50:45.082Z,52.65
2023-05-08T04:53:16.889Z,52.34
2023-05-08T04:55:47.316Z,52.10
2023-05-08T04:58:17.699Z,51.74
2023-05-08T05:00:46.880Z,51.51
2023-05-08T05:03:16.016Z,51.32
2023-05-08T05:05:45.226Z,50.00
2023-05-08T05:08:15.175Z,48.59
2023-05-08T05:10:44.381Z,48.00
2023-05-08T05:13:14.538Z,47.55
2023-05-08T05:15:44.978Z,47.59
2023-05-08T05:18:14.436Z,46.92
2023-05-08T05:20:43.391Z,46.60
2023-05-08T05:23:13.366Z,46.38
2023-05-08T05:25:42.210Z,46.63
2023-05-08T05:28:11.005Z,46.43
2023-05-08T05:30:41.476Z,46.48
2023-05-08T05:33:10.561Z,46.59
2023-05-08T05:35:39.809Z,45.59
2023-05-08T05:38:08.858Z,45.88
2023-05-08T05:40:37.667Z,45.40
2023-05-08T05:43:06.421Z,45.39
2023-05-08T05:45:36.236Z,45.07
2023-05-08T05:48:07.895Z,43.77
2023-05-08T05:50:37.988Z,43.06
2023-05-08T05:53:07.583Z,43.47
2023-05-08T05:55:36.323Z,42.93
2023-05-08T05:58:05.335Z,42.47
2023-05-08T06:00:35.362Z,42.48
2023-05-08T06:03:24.634Z,42.35
2023-05-08T06:06:04.227Z,42.15
2023-05-08T06:08:32.915Z,42.28
2023-05-08T06:11:02.743Z,41.97
2023-05-08T06:13:32.833Z,41.57
2023-05-08T06:16:02.870Z,41.68
2023-05-08T06:18:33.645Z,41.43
2023-05-08T06:21:07.017Z,41.58
2023-05-08T06:23:36.686Z,41.59
2023-05-08T06:26:05.784Z,41.34
2023-05-08T06:28:34.707Z,41.36
2023-05-08T06:31:04.987Z,40.72
2023-05-08T06:33:38.695Z,40.78
2023-05-08T06:36:12.704Z,40.75
2023-05-08T06:38:41.510Z,40.97
2023-05-08T06:41:15.461Z,40.84
2023-05-08T06:43:44.327Z,40.51
2023-05-08T06:46:13.117Z,40.72
2023-05-08T06:48:41.879Z,41.36
2023-05-08T06:51:12.054Z,40.11
2023-05-08T06:53:40.768Z,39.89
2023-05-08T06:56:09.724Z,39.28
2023-05-08T06:58:38.478Z,39.83
2023-05-08T07:01:07.397Z,39.65
2023-05-08T07:03:36.103Z,39.85
2023-05-08T07:06:04.955Z,39.27
2023-05-08T07:08:35.066Z,39.56
2023-05-08T07:11:03.995Z,39.25
2023-05-08T07:13:32.896Z,39.44
2023-05-08T07:16:01.739Z,39.33
2023-05-08T07:18:30.558Z,39.28
2023-05-08T07:20:59.299Z,39.04
2023-05-08T07:23:28.066Z,39.28
2023-05-08T07:25:58.089Z,38.86
2023-05-08T07:28:37.151Z,38.61
2023-05-08T07:31:07.203Z,38.72
2023-05-08T07:33:36.108Z,38.80
2023-05-08T07:36:05.244Z,38.72
2023-05-08T07:38:33.956Z,38.45
2023-05-08T07:41:05.434Z,38.50
2023-05-08T07:43:34.309Z,38.54
2023-05-08T07:46:03.113Z,38.32
2023-05-08T07:48:31.843Z,38.10
2023-05-08T07:51:00.556Z,37.61
2023-05-08T07:53:31.336Z,37.89
2023-05-08T07:56:00.256Z,37.52
2023-05-08T07:58:30.351Z,37.46
2023-05-08T08:00:59.616Z,37.64
2023-05-08T08:03:28.513Z,37.77
2023-05-08T08:05:57.648Z,37.83
2023-05-08T08:08:26.361Z,37.21
2023-05-08T08:10:55.105Z,37.34
2023-05-08T08:13:24.032Z,37.28
2023-05-08T08:15:54.242Z,37.29
2023-05-08T08:18:23.004Z,37.17
2023-05-08T08:20:51.736Z,37.01
2023-05-08T08:23:20.568Z,37.09
2023-05-08T08:25:49.522Z,37.15
2023-05-08T08:28:18.429Z,37.35
2023-05-08T08:30:47.185Z,37.13
2023-05-08T08:33:19.037Z,37.04
2023-05-08T08:35:48.122Z,37.13
2023-05-08T08:38:16.946Z,37.08
2023-05-08T08:40:45.892Z,36.81
2023-05-08T08:43:14.884Z,36.92
2023-05-08T08:45:43.533Z,36.87
2023-05-08T08:48:13.577Z,36.49
2023-05-08T08:50:48.644Z,36.59
2023-05-08T08:53:27.397Z,36.92
2023-05-08T08:55:59.389Z,37.01
2023-05-08T08:58:36.544Z,36.73
2023-05-08T09:01:10.724Z,37.09
2023-05-08T09:03:39.708Z,36.84
2023-05-08T09:06:11.070Z,36.68
2023-05-08T09:08:41.747Z,36.43
2023-05-08T09:11:10.509Z,37.09
2023-05-08T09:13:39.287Z,37.13
2023-05-08T09:16:08.676Z,37.38
2023-05-08T09:18:38.174Z,37.42
2023-05-08T09:21:09.432Z,37.52
2023-05-08T09:23:38.192Z,38.16
2023-05-08T09:26:06.897Z,38.31
2023-05-08T09:28:35.621Z,38.18
2023-05-08T09:31:04.517Z,38.30
2023-05-08T09:33:33.398Z,38.59
2023-05-08T09:36:02.355Z,38.15
2023-05-08T09:38:37.793Z,37.76
2023-05-08T09:41:12.330Z,38.13
2023-05-08T09:43:41.063Z,38.00
2023-05-08T09:46:25.815Z,38.37
2023-05-08T09:48:56.191Z,37.86
2023-05-08T09:51:25.453Z,37.66
2023-05-08T09:53:58.384Z,37.66
2023-05-08T09:56:36.717Z,37.41
2023-05-08T09:59:07.629Z,37.04
2023-05-08T10:01:39.737Z,37.54
2023-05-08T10:04:08.961Z,37.26
2023-05-08T10:06:37.896Z,36.99
2023-05-08T10:09:13.377Z,37.41
2023-05-08T10:11:43.806Z,36.68
2023-05-08T10:14:12.755Z,36.95
2023-05-08T10:16:46.102Z,36.88
2023-05-08T10:19:17.067Z,36.71
2023-05-08T10:21:50.083Z,36.71
2023-05-08T10:24:23.079Z,36.49
2023-05-08T10:27:07.533Z,36.48
2023-05-08T10:29:51.127Z,36.13
2023-05-08T10:32:22.062Z,36.48
2023-05-08T10:34:55.010Z,36.24
2023-05-08T10:37:24.104Z,36.15
2023-05-08T10:39:58.537Z,36.74
2023-05-08T10:42:28.921Z,36.73
2023-05-08T10:44:57.924Z,36.59
2023-05-08T10:47:37.878Z,36.36
2023-05-08T10:50:24.224Z,36.27
2023-05-08T10:53:04.020Z,36.41
2023-05-08T10:55:39.887Z,36.33
2023-05-08T10:58:16.305Z,36.53
2023-05-08T11:01:18.778Z,36.27
2023-05-08T11:03:51.710Z,36.40
2023-05-08T11:06:47.161Z,36.58
2023-05-08T11:09:24.462Z,36.50
2023-05-08T11:12:19.008Z,37.04
2023-05-08T11:14:59.836Z,36.76
2023-05-08T11:17:29.159Z,36.53
2023-05-08T11:20:00.809Z,37.12
2023-05-08T11:22:33.109Z,37.12
2023-05-08T11:25:06.895Z,36.97
2023-05-08T11:28:12.438Z,36.92
2023-05-08T11:30:41.721Z,36.77
2023-05-08T11:33:18.714Z,36.27
2023-05-08T11:35:59.244Z,36.23
2023-05-08T11:38:36.163Z,36.21
2023-05-08T11:41:08.378Z,36.29
2023-05-08T11:44:17.142Z,37.08
2023-05-08T11:46:53.000Z,36.73
2023-05-08T11:49:28.156Z,36.43
2023-05-08T11:52:01.303Z,36.83
2023-05-08T11:54:32.768Z,37.15
2023-05-08T11:57:01.911Z,36.79
2023-05-08T11:59:37.704Z,36.46
2023-05-08T12:02:08.965Z,37.19
2023-05-08T12:04:48.247Z,37.50
2023-05-08T12:07:18.721Z,36.94
2023-05-08T12:09:49.508Z,37.44
2023-05-08T12:12:18.346Z,37.34
2023-05-08T12:14:52.749Z,37.32
2023-05-08T12:17:21.984Z,37.35
2023-05-08T12:19:56.631Z,37.01
2023-05-08T12:22:26.119Z,36.58
2023-05-08T12:24:54.836Z,36.45
2023-05-08T12:27:23.650Z,36.32
2023-05-08T12:29:54.925Z,36.17
2023-05-08T12:32:23.884Z,36.35
2023-05-08T12:34:54.034Z,36.54
2023-05-08T12:37:29.515Z,36.41
2023-05-08T12:39:58.511Z,36.00
2023-05-08T12:42:43.798Z,36.19
2023-05-08T12:45:24.957Z,35.82
2023-05-08T12:47:59.327Z,35.87
2023-05-08T12:50:30.544Z,36.05
2023-05-08T12:53:05.694Z,35.85
2023-05-08T12:55:36.436Z,36.17
2023-05-08T12:58:08.232Z,36.19
2023-05-08T13:00:41.808Z,35.89
2023-05-08T13:03:13.851Z,35.80
2023-05-08T13:05:44.648Z,35.71
2023-05-08T13:08:14.189Z,35.98
2023-05-08T13:10:47.861Z,36.04
2023-05-08T13:13:19.011Z,35.98
2023-05-08T13:15:51.140Z,35.95
2023-05-08T13:18:22.412Z,35.80
2023-05-08T13:20:51.333Z,35.81
2023-05-08T13:23:20.858Z,35.98
2023-05-08T13:25:49.806Z,35.98
2023-05-08T13:28:18.749Z,35.97
2023-05-08T13:30:48.941Z,36.21
2023-05-08T13:33:17.743Z,36.17
2023-05-08T13:35:46.542Z,35.97
2023-05-08T13:38:15.467Z,36.12
2023-05-08T13:40:44.261Z,35.75
2023-05-08T13:43:12.984Z,35.66
2023-05-08T13:45:41.986Z,35.76
2023-05-08T13:48:12.136Z,36.01
2023-05-08T13:50:40.884Z,36.25
2023-05-08T13:53:09.737Z,35.81
2023-05-08T13:55:38.726Z,35.95
2023-05-08T13:58:07.462Z,35.97
2023-05-08T14:00:36.131Z,36.15
2023-05-08T14:03:05.326Z,35.84
2023-05-08T14:05:36.098Z,35.95
2023-05-08T14:08:05.074Z,35.82
2023-05-08T14:10:33.979Z,36.04
2023-05-08T14:13:02.781Z,35.90
2023-05-08T14:15:36.924Z,35.94
2023-05-08T14:18:07.443Z,35.98
2023-05-08T14:20:37.879Z,35.46
2023-05-08T14:23:06.629Z,35.47
2023-05-08T14:25:35.429Z,35.10
2023-05-08T14:28:04.207Z,34.82
2023-05-08T14:30:32.833Z,34.51
2023-05-08T14:33:01.894Z,34.59
2023-05-08T14:35:33.002Z,34.28
2023-05-08T14:38:03.246Z,34.27
2023-05-08T14:40:31.910Z,34.03
2023-05-08T14:43:00.696Z,33.69
2023-05-08T14:45:29.368Z,33.68
2023-05-08T14:47:58.137Z,33.77
2023-05-08T14:50:27.867Z,33.74
2023-05-08T14:52:56.701Z,33.71
2023-05-08T14:55:27.668Z,33.71
2023-05-08T14:57:56.569Z,33.35
2023-05-08T15:00:25.466Z,33.49
2023-05-08T15:02:54.337Z,33.55
2023-05-08T15:05:23.416Z,33.73
2023-05-08T15:07:52.182Z,33.64
2023-05-08T15:10:21.015Z,33.25
2023-05-08T15:12:51.796Z,33.47
2023-05-08T15:15:20.670Z,33.29
2023-05-08T15:17:49.448Z,32.60
2023-05-08T15:20:18.186Z,32.87
2023-05-08T15:22:46.891Z,33.08
2023-05-08T15:25:15.897Z,32.69
2023-05-08T15:27:44.884Z,33.01
2023-05-08T15:30:16.492Z,32.95
2023-05-08T15:32:45.292Z,32.98
2023-05-08T15:35:14.615Z,32.61
2023-05-08T15:37:43.770Z,32.78
2023-05-08T15:40:13.945Z,33.27
2023-05-08T15:42:42.640Z,33.33
2023-05-08T15:45:12.170Z,32.58
2023-05-08T15:47:42.456Z,32.71
2023-05-08T15:50:12.512Z,32.47
2023-05-08T15:52:41.297Z,32.58
2023-05-08T15:55:11.231Z,32.80
2023-05-08T15:57:40.250Z,32.56
2023-05-08T16:00:10.970Z,32.42
2023-05-08T16:02:41.816Z,32.48
2023-05-08T16:05:12.068Z,32.50
2023-05-08T16:07:43.881Z,33.00
2023-05-08T16:10:15.350Z,32.92
2023-05-08T16:13:14.148Z,33.11
2023-05-08T16:15:45.045Z,32.67
2023-05-08T16:18:15.269Z,33.45
2023-05-08T16:20:44.989Z,33.31
2023-05-08T16:23:15.297Z,33.63
2023-05-08T16:25:44.102Z,34.09
2023-05-08T16:28:12.890Z,33.78
2023-05-08T16:30:42.056Z,33.81
2023-05-08T16:33:12.205Z,33.96
2023-05-08T16:35:42.768Z,33.54
2023-05-08T16:38:11.738Z,33.48
2023-05-08T16:40:42.568Z,34.11
2023-05-08T16:43:11.379Z,33.48
2023-05-08T16:45:40.703Z,33.23
2023-05-08T16:48:09.610Z,33.08
2023-05-08T16:50:38.593Z,33.58
2023-05-08T16:53:09.138Z,34.15
2023-05-08T16:55:38.167Z,34.36
2023-05-08T16:58:07.368Z,34.50
2023-05-08T17:00:36.423Z,34.55
2023-05-08T17:03:05.802Z,34.64
2023-05-08T17:05:35.774Z,34.60
2023-05-08T17:08:04.697Z,34.87
2023-05-08T17:10:35.152Z,34.98
2023-05-08T17:13:03.938Z,35.40
2023-05-08T17:15:32.750Z,35.96
2023-05-08T17:18:07.324Z,36.66
2023-05-08T17:20:41.130Z,37.35
2023-05-08T17:23:12.994Z,37.48
2023-05-08T17:25:45.347Z,37.52
2023-05-08T17:28:14.567Z,37.82
2023-05-08T17:30:44.512Z,37.94
2023-05-08T17:33:14.709Z,38.27
2023-05-08T17:35:43.522Z,38.27
2023-05-08T17:38:12.419Z,38.48
2023-05-08T17:40:42.622Z,38.50
2023-05-08T17:46:02.408Z,38.51
2023-05-08T17:48:31.142Z,38.22
2023-05-08T17:51:02.613Z,38.42
2023-05-08T17:53:39.863Z,38.24
2023-05-08T17:56:10.973Z,38.38
2023-05-08T17:58:42.221Z,38.53
2023-05-08T18:01:11.010Z,39.48
2023-05-08T18:03:40.962Z,39.62
2023-05-08T18:06:09.797Z,39.75
2023-05-08T18:08:40.124Z,39.81
2023-05-08T18:11:19.605Z,40.03
2023-05-08T18:13:49.208Z,40.42
2023-05-08T18:16:24.211Z,40.50
2023-05-08T18:18:55.409Z,40.55
2023-05-08T18:21:40.043Z,40.62
2023-05-08T18:24:09.687Z,40.71
2023-05-08T18:26:40.028Z,41.15
2023-05-08T18:29:16.792Z,41.19
2023-05-08T18:31:55.348Z,41.22
2023-05-08T18:34:23.979Z,41.68
2023-05-08T18:36:56.016Z,41.76
2023-05-08T18:39:27.278Z,41.83
2023-05-08T18:41:59.759Z,42.00
2023-05-08T18:44:29.856Z,42.13
2023-05-08T18:47:11.114Z,42.50
2023-05-08T18:49:45.811Z,42.45
2023-05-08T18:52:15.297Z,42.51
2023-05-08T18:54:45.279Z,42.66
2023-05-08T18:57:17.029Z,43.06
2023-05-08T18:59:46.923Z,42.99
2023-05-08T19:02:15.781Z,43.06
2023-05-08T19:04:48.121Z,43.70
2023-05-08T19:07:17.109Z,43.56
2023-05-08T19:09:46.264Z,43.69
2023-05-08T19:12:18.390Z,43.40
2023-05-08T19:14:49.109Z,43.79
2023-05-08T19:17:21.351Z,43.71
2023-05-08T19:19:52.998Z,43.99
2023-05-08T19:22:21.896Z,44.18
2023-05-08T19:24:52.395Z,44.40
2023-05-08T19:27:22.645Z,44.72
2023-05-08T19:29:51.434Z,44.55
2023-05-08T19:32:20.288Z,44.96
2023-05-08T19:34:49.342Z,44.76
2023-05-08T19:37:18.690Z,45.11
2023-05-08T19:39:47.829Z,45.96
2023-05-08T19:42:16.857Z,45.79
2023-05-08T19:44:47.134Z,46.25
2023-05-08T19:47:16.700Z,46.71
2023-05-08T19:49:47.053Z,46.67
2023-05-08T19:52:15.828Z,47.05
2023-05-08T19:54:45.818Z,46.99
2023-05-08T19:57:14.924Z,47.44
2023-05-08T19:59:44.156Z,47.07
2023-05-08T20:02:20.321Z,47.31
2023-05-08T20:05:22.567Z,47.82
2023-05-08T20:07:53.030Z,47.77
2023-05-08T20:10:33.595Z,48.25
2023-05-08T20:13:06.607Z,48.13
2023-05-08T20:16:19.277Z,48.57
2023-05-08T20:18:49.778Z,48.38
2023-05-08T20:21:19.213Z,48.44
2023-05-08T20:24:26.939Z,48.62
2023-05-08T20:27:04.672Z,48.35
2023-05-08T20:29:37.134Z,48.37
2023-05-08T20:32:14.993Z,48.41
2023-05-08T20:34:45.975Z,48.30
2023-05-08T20:37:17.120Z,48.15
2023-05-08T20:39:46.299Z,48.16
2023-05-08T20:42:15.261Z,48.13
2023-05-08T20:44:44.204Z,48.08
2023-05-08T20:47:12.849Z,48.40
2023-05-08T20:49:41.898Z,48.80
2023-05-08T20:52:12.045Z,49.59
2023-05-08T20:54:40.828Z,50.25
2023-05-08T20:57:09.541Z,50.80
2023-05-08T20:59:38.302Z,52.12
2023-05-08T21:02:07.187Z,52.61
2023-05-08T21:04:36.042Z,52.84
2023-05-08T21:07:04.993Z,53.00
2023-05-08T21:09:35.181Z,53.21
2023-05-08T21:12:03.925Z,53.39
2023-05-08T21:14:32.726Z,53.22
2023-05-08T21:17:01.408Z,53.05
2023-05-08T21:19:33.277Z,53.10
2023-05-08T21:22:01.892Z,53.20
2023-05-08T21:24:32.030Z,53.74
2023-05-08T21:27:02.178Z,53.63
2023-05-08T21:29:32.271Z,53.63
2023-05-08T21:32:01.577Z,54.17
2023-05-08T21:34:30.478Z,54.45
2023-05-08T21:36:59.186Z,54.58
2023-05-08T21:39:27.915Z,55.05
2023-05-08T21:41:57.370Z,54.97
2023-05-08T21:44:37.099Z,55.48
2023-05-08T21:47:06.540Z,55.21
2023-05-08T21:49:46.314Z,55.14
2023-05-08T21:52:22.106Z,54.98
2023-05-08T21:54:53.019Z,55.98
2023-05-08T21:57:22.395Z,56.23
2023-05-08T21:59:52.549Z,56.43
2023-05-08T22:02:27.136Z,56.54
2023-05-08T22:04:58.137Z,57.11
2023-05-08T22:07:26.906Z,57.26
2023-05-08T22:09:59.730Z,57.15
2023-05-08T22:12:28.712Z,56.89
2023-05-08T22:14:58.853Z,57.15
2023-05-08T22:17:35.576Z,57.74
2023-05-08T22:20:05.466Z,57.92
2023-05-08T22:22:34.565Z,57.83
2023-05-08T22:25:03.335Z,57.53
2023-05-08T22:27:34.292Z,58.43
2023-05-08T22:30:04.816Z,58.23
2023-05-08T22:32:35.419Z,57.90
2023-05-08T22:35:14.028Z,57.58
2023-05-08T22:37:42.955Z,58.34
2023-05-08T22:40:12.734Z,58.37
2023-05-08T22:42:41.656Z,58.66
2023-05-08T22:45:14.259Z,58.56
2023-05-08T22:47:43.610Z,58.50
2023-05-08T22:50:13.986Z,58.87
2023-05-08T22:52:46.287Z,58.82
2023-05-08T22:55:16.567Z,58.71
2023-05-08T22:57:45.869Z,59.16
2023-05-08T23:00:17.494Z,58.87
2023-05-08T23:02:46.300Z,59.02
2023-05-08T23:05:22.808Z,58.95
2023-05-08T23:07:52.867Z,58.74
2023-05-08T23:10:21.738Z,59.30
2023-05-08T23:12:51.095Z,59.00
2023-05-08T23:15:22.369Z,58.88
2023-05-08T23:17:51.588Z,58.79
2023-05-08T23:20:20.575Z,58.81
2023-05-08T23:22:49.299Z,59.21
2023-05-08T23:25:18.033Z,58.45
2023-05-08T23:27:46.669Z,58.97
2023-05-08T23:30:18.707Z,58.99
2023-05-08T23:32:52.442Z,59.00
2023-05-08T23:35:23.182Z,58.76
2023-05-08T23:37:51.885Z,58.76
2023-05-08T23:40:49.067Z,58.69
2023-05-08T23:43:17.855Z,58.35
2023-05-08T23:45:46.831Z,57.78
2023-05-08T23:48:18.314Z,57.51
2023-05-08T23:50:48.189Z,57.27
2023-05-08T23:53:20.158Z,57.37
2023-05-08T23:55:52.413Z,57.20
2023-05-08T23:58:21.477Z,57.38
